createdAt,value
2018-05-23T00:00:05.552Z,13.43
2018-05-23T00:03:09.815Z,14.70
2018-05-23T00:06:12.408Z,13.37
2018-05-23T00:09:15.007Z,13.60
2018-05-23T00:12:17.626Z,14.37
2018-05-23T00:15:20.227Z,12.67
2018-05-23T00:18:22.824Z,13.13
2018-05-23T00:21:25.437Z,14.00
2018-05-23T00:24:28.303Z,12.70
2018-05-23T00:27:30.908Z,13.97
2018-05-23T00:30:33.488Z,14.40
2018-05-23T00:33:36.146Z,14.10
2018-05-23T00:36:38.903Z,13.97
2018-05-23T00:39:41.498Z,14.17
2018-05-23T00:42:44.079Z,15.20
2018-05-23T00:45:47.422Z,14.70
2018-05-23T00:48:50.000Z,12.97
2018-05-23T00:51:52.579Z,13.33
2018-05-23T00:55:07.223Z,12.90
2018-05-23T00:58:09.824Z,14.17
2018-05-23T01:01:12.451Z,13.63
2018-05-23T01:04:15.165Z,15.43
2018-05-23T01:07:17.956Z,13.90
2018-05-23T01:10:20.565Z,15.57
2018-05-23T01:13:23.139Z,13.20
2018-05-23T01:16:25.898Z,12.73
2018-05-23T01:19:29.243Z,12.90
2018-05-23T01:22:31.842Z,13.00
2018-05-23T01:25:34.415Z,13.67
2018-05-23T01:28:37.094Z,16.43
2018-05-23T01:31:40.266Z,14.90
2018-05-23T01:34:42.857Z,13.00
2018-05-23T01:37:45.454Z,16.03
2018-05-23T01:40:48.088Z,13.63
2018-05-23T01:43:50.703Z,14.50
2018-05-23T01:46:53.468Z,12.50
2018-05-23T01:49:56.098Z,15.80
2018-05-23T01:53:00.205Z,14.13
2018-05-23T01:56:02.814Z,14.70
2018-05-23T01:59:05.409Z,16.27
2018-05-23T02:02:08.010Z,15.60
2018-05-23T02:05:10.591Z,15.30
2018-05-23T02:08:13.222Z,15.47
2018-05-23T02:11:16.775Z,14.20
2018-05-23T02:14:19.639Z,15.60
2018-05-23T02:17:22.208Z,13.97
2018-05-23T02:20:25.111Z,14.33
2018-05-23T02:23:29.196Z,15.70
2018-05-23T02:26:31.791Z,16.33
2018-05-23T02:29:34.401Z,13.40
2018-05-23T02:32:37.795Z,15.67
2018-05-23T02:35:40.384Z,15.40
2018-05-23T02:38:43.720Z,14.83
2018-05-23T02:41:46.485Z,15.40
2018-05-23T02:44:49.065Z,13.57
2018-05-23T02:47:51.671Z,16.67
2018-05-23T02:50:54.250Z,14.73
2018-05-23T02:53:56.843Z,15.43
2018-05-23T02:56:59.441Z,14.47
2018-05-23T03:00:02.045Z,13.40
2018-05-23T03:03:04.708Z,14.43
2018-05-23T03:06:07.263Z,12.67
2018-05-23T03:09:09.869Z,15.40
2018-05-23T03:12:12.506Z,16.37
2018-05-23T03:15:15.079Z,15.50
2018-05-23T03:18:18.419Z,15.37
2018-05-23T03:21:21.163Z,17.10
2018-05-23T03:24:23.764Z,15.13
2018-05-23T03:27:26.368Z,16.33
2018-05-23T03:30:28.968Z,16.67
2018-05-23T03:33:31.578Z,13.37
2018-05-23T03:36:34.979Z,14.10
2018-05-23T03:39:37.593Z,14.70
2018-05-23T03:42:40.184Z,14.90
2018-05-23T03:45:42.805Z,14.90
2018-05-23T03:48:45.407Z,15.10
2018-05-23T03:51:48.767Z,14.87
2018-05-23T03:54:51.353Z,15.27
2018-05-23T03:57:53.961Z,13.37
2018-05-23T04:01:08.178Z,17.90
2018-05-23T04:07:47.487Z,14.60
2018-05-23T04:10:50.099Z,15.60
2018-05-23T04:13:52.691Z,15.27
2018-05-23T04:16:55.288Z,15.83
2018-05-23T04:19:58.229Z,14.27
2018-05-23T04:23:00.818Z,14.40
2018-05-23T04:26:03.510Z,14.90
2018-05-23T04:29:06.171Z,13.53
2018-05-23T04:32:09.599Z,14.33
2018-05-23T04:35:12.226Z,15.80
2018-05-23T04:38:14.804Z,16.37
2018-05-23T04:41:17.386Z,14.63
2018-05-23T04:44:19.987Z,12.60
2018-05-23T04:47:22.590Z,13.50
2018-05-23T04:50:25.200Z,14.50
2018-05-23T04:53:28.412Z,15.27
2018-05-23T04:56:31.001Z,13.07
2018-05-23T04:59:33.712Z,13.70
2018-05-23T05:02:38.114Z,13.33
2018-05-23T05:05:40.932Z,13.23
2018-05-23T05:08:45.025Z,13.23
2018-05-23T05:11:47.634Z,14.13
2018-05-23T05:14:50.223Z,12.60
2018-05-23T05:17:52.858Z,13.43
2018-05-23T05:20:55.483Z,12.47
2018-05-23T05:23:58.880Z,14.87
2018-05-23T05:27:02.330Z,14.35
2018-05-23T05:30:04.915Z,13.00
2018-05-23T05:33:07.547Z,13.10
2018-05-23T05:36:10.262Z,13.37
2018-05-23T05:39:12.894Z,12.23
2018-05-23T05:42:15.523Z,11.80
2018-05-23T05:45:18.115Z,13.30
2018-05-23T05:48:20.746Z,12.27
2018-05-23T05:51:24.033Z,12.33
2018-05-23T05:54:26.634Z,12.33
2018-05-23T05:57:29.338Z,12.17
2018-05-23T06:00:32.732Z,11.67
2018-05-23T06:03:35.338Z,10.60
2018-05-23T06:06:37.969Z,11.47
2018-05-23T06:09:40.873Z,11.20
2018-05-23T06:12:43.423Z,10.23
2018-05-23T06:15:46.503Z,11.60
2018-05-23T06:18:49.095Z,10.83
2018-05-23T06:21:51.729Z,10.03
2018-05-23T06:24:54.635Z,12.63
2018-05-23T06:27:57.229Z,11.03
2018-05-23T06:30:59.841Z,10.83
2018-05-23T06:34:02.527Z,9.07
2018-05-23T06:37:05.140Z,9.67
2018-05-23T06:40:07.732Z,10.00
2018-05-23T06:43:11.152Z,9.33
2018-05-23T06:46:13.752Z,8.83
2018-05-23T06:49:16.370Z,10.53
2018-05-23T06:52:19.697Z,8.63
2018-05-23T06:55:23.102Z,8.87
2018-05-23T06:58:26.470Z,9.60
2018-05-23T07:01:29.066Z,8.60
2018-05-23T07:04:31.696Z,8.93
2018-05-23T07:07:34.363Z,8.83
2018-05-23T07:10:37.035Z,9.00
2018-05-23T07:13:40.400Z,6.53
2018-05-23T07:16:44.302Z,11.13
2018-05-23T07:19:46.958Z,6.80
2018-05-23T07:22:49.739Z,6.70
2018-05-23T07:25:52.398Z,6.37
2018-05-23T07:28:54.990Z,6.40
2018-05-23T07:31:57.580Z,6.12
2018-05-23T07:35:00.208Z,6.32
2018-05-23T07:38:02.888Z,6.68
2018-05-23T07:41:05.625Z,6.62
2018-05-23T07:44:08.397Z,6.78
2018-05-23T07:47:12.759Z,6.10
2018-05-23T07:50:16.752Z,5.60
2018-05-23T07:53:19.778Z,6.05
2018-05-23T07:56:22.367Z,5.62
2018-05-23T07:59:24.963Z,5.18
2018-05-23T08:02:29.086Z,6.10
2018-05-23T08:05:31.679Z,5.35
2018-05-23T08:08:35.038Z,6.77
2018-05-23T08:11:37.637Z,5.57
2018-05-23T08:14:41.027Z,5.77
2018-05-23T08:17:43.600Z,6.93
2018-05-23T08:20:46.798Z,5.27
2018-05-23T08:23:49.417Z,5.50
2018-05-23T08:26:52.793Z,5.93
2018-05-23T08:29:55.354Z,5.50
2018-05-23T08:32:58.127Z,6.30
2018-05-23T08:36:00.743Z,6.50
2018-05-23T08:39:03.437Z,6.47
2018-05-23T08:42:06.028Z,6.50
2018-05-23T08:45:08.654Z,7.70
2018-05-23T08:48:11.646Z,7.40
2018-05-23T08:51:14.460Z,8.17
2018-05-23T08:54:17.083Z,7.43
2018-05-23T08:57:20.512Z,6.67
2018-05-23T09:00:23.126Z,6.83
2018-05-23T09:03:25.743Z,6.47
2018-05-23T09:06:29.109Z,7.30
2018-05-23T09:09:31.701Z,7.00
2018-05-23T09:12:34.281Z,7.13
2018-05-23T09:15:37.011Z,8.20
2018-05-23T09:18:39.618Z,7.23
2018-05-23T09:21:42.200Z,9.00
2018-05-23T09:24:44.835Z,9.63
2018-05-23T09:27:47.413Z,7.07
2018-05-23T09:30:50.014Z,9.87
2018-05-23T09:33:52.817Z,7.80
2018-05-23T09:36:55.704Z,7.97
2018-05-23T09:39:58.293Z,7.07
2018-05-23T09:43:00.884Z,7.20
2018-05-23T09:46:03.456Z,7.93
2018-05-23T09:49:06.060Z,7.93
2018-05-23T09:52:08.706Z,9.60
2018-05-23T09:55:11.343Z,7.33
2018-05-23T09:58:13.949Z,7.07
2018-05-23T10:01:16.580Z,6.73
2018-05-23T10:04:19.169Z,7.80
2018-05-23T10:07:21.970Z,9.80
2018-05-23T10:10:24.636Z,7.67
2018-05-23T10:13:27.254Z,8.80
2018-05-23T10:16:30.115Z,9.57
2018-05-23T10:19:32.706Z,8.50
2018-05-23T10:22:35.317Z,10.20
2018-05-23T10:25:37.937Z,9.17
2018-05-23T10:28:40.532Z,7.40
2018-05-23T10:31:43.112Z,7.60
2018-05-23T10:34:45.707Z,7.90
2018-05-23T10:37:48.313Z,7.00
2018-05-23T10:40:50.905Z,6.63
2018-05-23T10:43:53.491Z,12.30
2018-05-23T10:46:56.304Z,9.67
2018-05-23T10:49:58.873Z,7.53
2018-05-23T10:53:02.383Z,8.47
2018-05-23T10:56:05.064Z,8.37
2018-05-23T10:59:08.414Z,7.60
2018-05-23T11:02:11.158Z,8.73
2018-05-23T11:05:13.738Z,10.00
2018-05-23T11:08:16.350Z,7.40
2018-05-23T11:11:18.983Z,6.83
2018-05-23T11:14:21.564Z,6.90
2018-05-23T11:17:25.791Z,8.87
2018-05-23T11:20:28.431Z,7.40
2018-05-23T11:23:30.999Z,7.20
2018-05-23T11:26:33.603Z,7.30
2018-05-23T11:29:36.534Z,7.00
2018-05-23T11:32:39.362Z,8.60
2018-05-23T11:35:41.980Z,6.93
2018-05-23T11:38:44.578Z,7.50
2018-05-23T11:41:48.089Z,8.33
2018-05-23T11:44:50.662Z,10.33
2018-05-23T11:47:54.852Z,7.57
2018-05-23T11:50:58.979Z,7.80
2018-05-23T11:54:03.074Z,7.67
2018-05-23T11:57:05.664Z,8.43
2018-05-23T12:00:08.305Z,6.60
2018-05-23T12:03:10.951Z,9.70
2018-05-23T12:06:13.535Z,10.03
2018-05-23T12:09:16.900Z,8.20
2018-05-23T12:12:19.490Z,7.67
2018-05-23T12:15:22.104Z,8.03
2018-05-23T12:18:24.675Z,8.23
2018-05-23T12:21:27.269Z,7.57
2018-05-23T12:24:29.864Z,8.37
2018-05-23T12:27:32.475Z,7.07
2018-05-23T12:30:35.228Z,6.57
2018-05-23T12:33:38.621Z,6.57
2018-05-23T12:36:41.239Z,6.53
2018-05-23T12:39:44.005Z,6.57
2018-05-23T12:42:46.564Z,6.30
2018-05-23T12:45:49.938Z,6.83
2018-05-23T12:48:54.048Z,6.07
2018-05-23T12:51:56.672Z,8.90
2018-05-23T12:55:00.043Z,8.10
2018-05-23T12:58:02.645Z,7.60
2018-05-23T13:01:06.175Z,7.13
2018-05-23T13:04:08.789Z,8.83
2018-05-23T13:07:11.542Z,6.40
2018-05-23T13:10:14.327Z,6.50
2018-05-23T13:13:16.926Z,5.80
2018-05-23T13:16:19.520Z,5.90
2018-05-23T13:19:22.081Z,8.27
2018-05-23T13:22:24.671Z,8.60
2018-05-23T13:25:27.261Z,7.63
2018-05-23T13:28:30.150Z,6.10
2018-05-23T13:31:33.732Z,8.07
2018-05-23T13:34:36.340Z,6.70
2018-05-23T13:37:38.959Z,9.53
2018-05-23T13:40:42.510Z,5.03
2018-05-23T13:43:45.093Z,7.83
2018-05-23T13:46:49.407Z,6.23
2018-05-23T13:49:52.004Z,6.57
2018-05-23T13:52:54.832Z,5.23
2018-05-23T13:55:58.291Z,6.80
2018-05-23T13:59:00.897Z,7.10
2018-05-23T14:02:03.523Z,7.93
2018-05-23T14:05:06.946Z,8.33
2018-05-23T14:08:09.633Z,9.07
2018-05-23T14:11:12.266Z,7.20
2018-05-23T14:14:14.837Z,6.43
2018-05-23T14:17:17.575Z,6.73
2018-05-23T14:20:20.187Z,6.47
2018-05-23T14:23:22.772Z,5.90
2018-05-23T14:26:25.430Z,7.43
2018-05-23T14:29:28.032Z,8.00
2018-05-23T14:32:30.840Z,6.07
2018-05-23T14:35:33.467Z,7.80
2018-05-23T14:38:36.802Z,7.90
2018-05-23T14:41:39.634Z,6.83
2018-05-23T14:44:42.207Z,6.50
2018-05-23T14:47:44.807Z,6.83
2018-05-23T14:50:48.187Z,6.30
2018-05-23T14:53:50.959Z,8.03
2018-05-23T14:56:53.627Z,12.10
2018-05-23T14:59:56.276Z,7.40
2018-05-23T15:02:58.877Z,8.63
2018-05-23T15:06:01.514Z,6.40
2018-05-23T15:09:05.847Z,6.23
2018-05-23T15:12:09.211Z,7.00
2018-05-23T15:15:12.051Z,7.40
2018-05-23T15:18:14.685Z,8.97
2018-05-23T15:21:17.290Z,8.70
2018-05-23T15:24:21.230Z,6.70
2018-05-23T15:27:24.710Z,8.00
2018-05-23T15:30:28.085Z,9.97
2018-05-23T15:33:31.426Z,7.57
2018-05-23T15:36:34.013Z,7.03
2018-05-23T15:39:36.615Z,8.40
2018-05-23T15:42:39.249Z,8.57
2018-05-23T15:45:41.964Z,6.73
2018-05-23T15:48:44.582Z,7.80
2018-05-23T15:51:47.333Z,7.40
2018-05-23T15:54:49.912Z,7.73
2018-05-23T15:57:52.511Z,8.63
2018-05-23T16:00:55.172Z,9.43
2018-05-23T16:03:57.861Z,12.30
2018-05-23T16:07:00.437Z,10.80
2018-05-23T16:10:03.066Z,10.87
2018-05-23T16:13:05.637Z,10.43
2018-05-23T16:16:08.266Z,8.73
2018-05-23T16:19:11.598Z,9.80
2018-05-23T16:22:14.379Z,7.67
2018-05-23T16:25:17.164Z,9.13
2018-05-23T16:28:20.518Z,10.17
2018-05-23T16:31:26.431Z,10.70
2018-05-23T16:34:29.127Z,11.30
2018-05-23T16:37:31.735Z,11.93
2018-05-23T16:40:34.391Z,11.40
2018-05-23T16:43:37.055Z,11.40
2018-05-23T16:46:39.742Z,11.80
2018-05-23T16:49:42.345Z,11.03
2018-05-23T16:52:45.531Z,10.70
2018-05-23T16:55:48.173Z,11.37
2018-05-23T16:58:50.778Z,9.33
2018-05-23T17:01:53.427Z,10.43
2018-05-23T17:04:56.047Z,9.17
2018-05-23T17:07:58.672Z,8.63
2018-05-23T17:11:01.318Z,8.83
2018-05-23T17:14:04.047Z,9.67
2018-05-23T17:17:10.674Z,9.83
2018-05-23T17:20:13.311Z,10.53
2018-05-23T17:23:16.042Z,9.43
2018-05-23T17:26:18.627Z,9.37
2018-05-23T17:29:21.224Z,9.43
2018-05-23T17:32:23.835Z,11.70
2018-05-23T17:35:26.506Z,11.73
2018-05-23T17:38:29.346Z,10.97
2018-05-23T17:41:32.848Z,9.80
2018-05-23T17:44:36.321Z,10.17
2018-05-23T17:47:38.885Z,9.87
2018-05-23T17:50:41.481Z,10.37
2018-05-23T17:53:44.049Z,8.37
2018-05-23T17:56:47.758Z,9.50
2018-05-23T17:59:50.504Z,10.67
2018-05-23T18:02:53.709Z,10.20
2018-05-23T18:05:56.357Z,11.33
2018-05-23T18:08:59.739Z,12.40
2018-05-23T18:12:02.450Z,9.97
2018-05-23T18:15:04.997Z,10.73
2018-05-23T18:18:08.760Z,10.63
2018-05-23T18:21:15.189Z,10.40
2018-05-23T18:24:18.731Z,10.53
2018-05-23T18:27:21.542Z,9.13
2018-05-23T18:30:24.301Z,11.57
2018-05-23T18:33:27.116Z,10.13
2018-05-23T18:36:29.770Z,10.63
2018-05-23T18:39:32.605Z,13.57
2018-05-23T18:42:36.478Z,12.70
2018-05-23T18:45:39.093Z,16.27
2018-05-23T18:48:41.715Z,14.10
2018-05-23T18:51:45.779Z,16.80
2018-05-23T18:54:48.541Z,12.00
2018-05-23T18:57:51.162Z,12.77
2018-05-23T19:00:53.755Z,12.80
2018-05-23T19:03:56.503Z,12.73
2018-05-23T19:06:59.270Z,11.00
2018-05-23T19:10:02.679Z,11.37
2018-05-23T19:13:05.282Z,13.27
2018-05-23T19:16:07.936Z,12.20
2018-05-23T19:19:10.576Z,11.90
2018-05-23T19:22:13.296Z,11.33
2018-05-23T19:25:16.872Z,12.03
2018-05-23T19:28:19.498Z,13.60
2018-05-23T19:31:22.082Z,13.40
2018-05-23T19:34:24.721Z,12.67
2018-05-23T19:37:27.323Z,13.80
2018-05-23T19:40:30.700Z,13.43
2018-05-23T19:43:33.521Z,13.40
2018-05-23T19:46:36.134Z,13.80
2018-05-23T19:49:39.722Z,13.10
2018-05-23T19:52:48.110Z,12.37
2018-05-23T19:55:51.430Z,14.70
2018-05-23T19:58:54.357Z,13.13
2018-05-23T20:01:56.994Z,14.70
2018-05-23T20:04:59.598Z,13.83
2018-05-23T20:08:02.305Z,13.13
2018-05-23T20:11:06.152Z,12.53
2018-05-23T20:14:09.642Z,13.57
2018-05-23T20:17:12.249Z,13.90
2018-05-23T20:20:15.636Z,13.63
2018-05-23T20:23:19.791Z,14.57
2018-05-23T20:26:22.458Z,12.27
2018-05-23T20:29:25.070Z,12.07
2018-05-23T20:32:27.761Z,13.13
2018-05-23T20:35:30.460Z,12.73
2018-05-23T20:38:33.008Z,14.87
2018-05-23T20:41:35.625Z,13.77
2018-05-23T20:44:38.214Z,12.97
2018-05-23T20:47:40.905Z,12.70
2018-05-23T20:50:43.468Z,13.80
2018-05-23T20:53:46.075Z,13.17
2018-05-23T20:56:48.675Z,14.77
2018-05-23T20:59:52.184Z,13.87
2018-05-23T21:02:55.627Z,13.33
2018-05-23T21:05:58.597Z,13.73
2018-05-23T21:09:01.282Z,14.20
2018-05-23T21:12:03.948Z,13.70
2018-05-23T21:15:06.534Z,13.00
2018-05-23T21:18:10.114Z,13.05
2018-05-23T21:21:12.765Z,13.00
2018-05-23T21:24:15.357Z,12.63
2018-05-23T21:27:18.097Z,13.57
2018-05-23T21:30:20.732Z,12.83
2018-05-23T21:33:23.570Z,12.90
2018-05-23T21:36:26.223Z,14.27
2018-05-23T21:39:28.858Z,13.87
2018-05-23T21:42:31.504Z,12.87
2018-05-23T21:45:34.900Z,13.20
2018-05-23T21:48:37.513Z,13.47
2018-05-23T21:51:40.174Z,13.80
2018-05-23T21:54:43.521Z,14.67
2018-05-23T21:57:46.152Z,14.30
2018-05-23T22:00:49.711Z,12.97
2018-05-23T22:03:52.562Z,13.63
2018-05-23T22:06:55.170Z,16.30
2018-05-23T22:09:57.767Z,14.27
2018-05-23T22:13:00.366Z,13.30
2018-05-23T22:16:03.003Z,13.57
2018-05-23T22:19:05.672Z,15.67
2018-05-23T22:22:08.469Z,12.77
2018-05-23T22:25:11.062Z,17.20
2018-05-23T22:28:13.891Z,13.10
2018-05-23T22:31:16.474Z,13.50
2018-05-23T22:34:19.157Z,13.33
2018-05-23T22:37:22.507Z,15.00
2018-05-23T22:40:25.156Z,13.67
2018-05-23T22:43:28.526Z,11.20
2018-05-23T22:46:31.169Z,13.90
2018-05-23T22:49:33.839Z,12.00
2018-05-23T22:52:36.432Z,13.10
2018-05-23T22:55:39.067Z,12.27
2018-05-23T22:58:43.208Z,12.90
2018-05-23T23:01:45.838Z,13.60
2018-05-23T23:04:48.451Z,13.07
2018-05-23T23:07:51.033Z,13.60
2018-05-23T23:10:53.692Z,13.10
2018-05-23T23:13:56.275Z,12.87
2018-05-23T23:16:58.863Z,15.53
2018-05-23T23:20:01.462Z,15.17
2018-05-23T23:23:04.300Z,14.57
2018-05-23T23:26:06.891Z,14.40
2018-05-23T23:29:09.524Z,12.80
2018-05-23T23:32:12.158Z,14.30
2018-05-23T23:35:14.793Z,14.47
2018-05-23T23:38:17.401Z,14.77
2018-05-23T23:41:20.020Z,12.10
2018-05-23T23:44:29.520Z,11.50
2018-05-23T23:47:32.152Z,13.47
2018-05-23T23:50:34.731Z,19.20
2018-05-23T23:53:37.331Z,13.47
2018-05-23T23:56:39.953Z,15.90
2018-05-23T23:59:42.531Z,14.23
